sensor_id;sensor_type;location;lat;lon;timestamp;P1;durP1;ratioP1;P2;durP2;ratioP2
982;SDS011;480;48.124;11.578;2022-10-16T00:01:26;8.73;;;3.07;;
982;SDS011;480;48.124;11.578;2022-10-16T00:03:54;1.90;;;1.60;;
982;SDS011;480;48.124;11.578;2022-10-16T00:06:23;2.33;;;2.13;;
982;SDS011;480;48.124;11.578;2022-10-16T00:08:50;2.20;;;1.90;;
982;SDS011;480;48.124;11.578;2022-10-16T00:11:19;2.20;;;2.00;;
982;SDS011;480;48.124;11.578;2022-10-16T00:13:49;2.23;;;1.97;;
982;SDS011;480;48.124;11.578;2022-10-16T00:16:18;3.40;;;1.60;;
982;SDS011;480;48.124;11.578;2022-10-16T00:18:45;3.73;;;2.07;;
982;SDS011;480;48.124;11.578;2022-10-16T00:21:14;2.07;;;1.90;;
982;SDS011;480;48.124;11.578;2022-10-16T00:23:43;2.13;;;2.03;;
982;SDS011;480;48.124;11.578;2022-10-16T00:26:11;3.53;;;2.20;;
982;SDS011;480;48.124;11.578;2022-10-16T00:28:39;3.43;;;2.40;;
982;SDS011;480;48.124;11.578;2022-10-16T00:31:10;2.53;;;2.00;;
982;SDS011;480;48.124;11.578;2022-10-16T00:33:38;1.83;;;1.73;;
982;SDS011;480;48.124;11.578;2022-10-16T00:36:07;2.27;;;1.80;;
982;SDS011;480;48.124;11.578;2022-10-16T00:38:36;3.17;;;2.20;;
982;SDS011;480;48.124;11.578;2022-10-16T00:41:03;2.10;;;1.90;;
982;SDS011;480;48.124;11.578;2022-10-16T00:43:35;1.70;;;1.60;;
982;SDS011;480;48.124;11.578;2022-10-16T00:46:08;1.73;;;1.63;;
982;SDS011;480;48.124;11.578;2022-10-16T00:48:41;2.07;;;1.90;;
982;SDS011;480;48.124;11.578;2022-10-16T00:51:11;1.87;;;1.77;;
982;SDS011;480;48.124;11.578;2022-10-16T00:53:38;1.50;;;1.40;;
982;SDS011;480;48.124;11.578;2022-10-16T00:56:06;1.73;;;1.53;;
982;SDS011;480;48.124;11.578;2022-10-16T00:58:33;4.70;;;2.07;;
982;SDS011;480;48.124;11.578;2022-10-16T01:00:59;2.10;;;2.00;;
982;SDS011;480;48.124;11.578;2022-10-16T01:03:29;1.93;;;1.73;;
982;SDS011;480;48.124;11.578;2022-10-16T01:05:59;3.43;;;2.00;;
982;SDS011;480;48.124;11.578;2022-10-16T01:08:42;2.33;;;2.03;;
982;SDS011;480;48.124;11.578;2022-10-16T01:11:17;2.50;;;1.80;;
982;SDS011;480;48.124;11.578;2022-10-16T01:13:53;1.57;;;1.47;;
982;SDS011;480;48.124;11.578;2022-10-16T01:16:27;2.43;;;2.23;;
982;SDS011;480;48.124;11.578;2022-10-16T01:19:00;2.80;;;2.60;;
982;SDS011;480;48.124;11.578;2022-10-16T01:21:33;2.80;;;2.07;;
982;SDS011;480;48.124;11.578;2022-10-16T01:24:06;2.10;;;2.00;;
982;SDS011;480;48.124;11.578;2022-10-16T01:26:50;1.60;;;1.50;;
982;SDS011;480;48.124;11.578;2022-10-16T01:29:39;1.60;;;1.50;;
982;SDS011;480;48.124;11.578;2022-10-16T01:32:13;2.43;;;2.20;;
982;SDS011;480;48.124;11.578;2022-10-16T01:34:46;1.90;;;1.80;;
982;SDS011;480;48.124;11.578;2022-10-16T01:37:25;2.10;;;1.90;;
982;SDS011;480;48.124;11.578;2022-10-16T01:39:59;2.63;;;2.00;;
982;SDS011;480;48.124;11.578;2022-10-16T01:42:31;2.13;;;1.90;;
982;SDS011;480;48.124;11.578;2022-10-16T01:45:06;12.90;;;2.20;;
982;SDS011;480;48.124;11.578;2022-10-16T01:47:36;1.93;;;1.73;;
982;SDS011;480;48.124;11.578;2022-10-16T01:50:05;4.60;;;1.87;;
982;SDS011;480;48.124;11.578;2022-10-16T01:52:37;1.60;;;1.50;;
982;SDS011;480;48.124;11.578;2022-10-16T01:55:09;3.80;;;1.57;;
982;SDS011;480;48.124;11.578;2022-10-16T01:57:41;2.17;;;1.97;;
982;SDS011;480;48.124;11.578;2022-10-16T02:00:12;2.37;;;2.17;;
982;SDS011;480;48.124;11.578;2022-10-16T02:02:43;1.70;;;1.60;;
982;SDS011;480;48.124;11.578;2022-10-16T02:05:15;1.83;;;1.73;;
982;SDS011;480;48.124;11.578;2022-10-16T02:07:48;3.37;;;3.07;;
982;SDS011;480;48.124;11.578;2022-10-16T02:10:15;2.87;;;2.60;;
982;SDS011;480;48.124;11.578;2022-10-16T02:12:46;1.27;;;1.17;;
982;SDS011;480;48.124;11.578;2022-10-16T02:15:16;1.57;;;1.47;;
982;SDS011;480;48.124;11.578;2022-10-16T02:17:44;2.37;;;1.53;;
982;SDS011;480;48.124;11.578;2022-10-16T02:20:11;1.83;;;1.60;;
982;SDS011;480;48.124;11.578;2022-10-16T02:22:38;1.00;;;0.90;;
982;SDS011;480;48.124;11.578;2022-10-16T02:25:10;1.30;;;1.20;;
982;SDS011;480;48.124;11.578;2022-10-16T02:27:42;2.37;;;1.80;;
982;SDS011;480;48.124;11.578;2022-10-16T02:30:19;1.37;;;1.27;;
982;SDS011;480;48.124;11.578;2022-10-16T02:32:50;2.50;;;1.27;;
982;SDS011;480;48.124;11.578;2022-10-16T02:35:20;1.30;;;1.20;;
982;SDS011;480;48.124;11.578;2022-10-16T02:37:49;2.93;;;1.30;;
982;SDS011;480;48.124;11.578;2022-10-16T02:40:17;1.50;;;1.40;;
982;SDS011;480;48.124;11.578;2022-10-16T02:42:49;2.43;;;1.60;;
982;SDS011;480;48.124;11.578;2022-10-16T02:45:18;1.10;;;1.00;;
982;SDS011;480;48.124;11.578;2022-10-16T02:47:45;1.27;;;1.20;;
982;SDS011;480;48.124;11.578;2022-10-16T02:50:13;1.50;;;1.40;;
982;SDS011;480;48.124;11.578;2022-10-16T02:52:40;1.10;;;1.10;;
982;SDS011;480;48.124;11.578;2022-10-16T02:55:07;1.20;;;1.10;;
982;SDS011;480;48.124;11.578;2022-10-16T02:57:35;1.13;;;1.10;;
982;SDS011;480;48.124;11.578;2022-10-16T03:00:04;1.43;;;1.33;;
982;SDS011;480;48.124;11.578;2022-10-16T03:02:33;5.33;;;1.27;;
982;SDS011;480;48.124;11.578;2022-10-16T03:05:00;1.47;;;1.37;;
982;SDS011;480;48.124;11.578;2022-10-16T03:07:27;1.90;;;1.80;;
982;SDS011;480;48.124;11.578;2022-10-16T03:09:54;2.53;;;1.60;;
982;SDS011;480;48.124;11.578;2022-10-16T03:12:21;1.63;;;1.53;;
982;SDS011;480;48.124;11.578;2022-10-16T03:14:48;2.17;;;2.07;;
982;SDS011;480;48.124;11.578;2022-10-16T03:17:17;2.80;;;1.30;;
982;SDS011;480;48.124;11.578;2022-10-16T03:19:44;1.90;;;1.40;;
982;SDS011;480;48.124;11.578;2022-10-16T03:22:11;1.60;;;1.17;;
982;SDS011;480;48.124;11.578;2022-10-16T03:24:38;1.57;;;1.43;;
982;SDS011;480;48.124;11.578;2022-10-16T03:27:07;1.77;;;1.30;;
982;SDS011;480;48.124;11.578;2022-10-16T03:29:34;1.30;;;1.30;;
982;SDS011;480;48.124;11.578;2022-10-16T03:32:01;1.63;;;1.20;;
982;SDS011;480;48.124;11.578;2022-10-16T03:34:30;1.50;;;1.40;;
982;SDS011;480;48.124;11.578;2022-10-16T03:36:57;1.43;;;1.20;;
982;SDS011;480;48.124;11.578;2022-10-16T03:39:24;1.60;;;1.50;;
982;SDS011;480;48.124;11.578;2022-10-16T03:41:52;2.20;;;1.67;;
982;SDS011;480;48.124;11.578;2022-10-16T03:44:19;1.30;;;1.20;;
982;SDS011;480;48.124;11.578;2022-10-16T03:46:46;1.63;;;1.53;;
982;SDS011;480;48.124;11.578;2022-10-16T03:49:13;1.23;;;1.13;;
982;SDS011;480;48.124;11.578;2022-10-16T03:51:42;1.93;;;1.33;;
982;SDS011;480;48.124;11.578;2022-10-16T03:54:09;1.63;;;1.50;;
982;SDS011;480;48.124;11.578;2022-10-16T03:56:36;1.30;;;1.20;;
982;SDS011;480;48.124;11.578;2022-10-16T03:59:04;1.30;;;1.20;;
982;SDS011;480;48.124;11.578;2022-10-16T04:01:31;1.87;;;1.20;;
982;SDS011;480;48.124;11.578;2022-10-16T04:03:58;1.60;;;1.50;;
982;SDS011;480;48.124;11.578;2022-10-16T04:06:25;1.80;;;1.47;;
982;SDS011;480;48.124;11.578;2022-10-16T04:08:53;2.03;;;1.83;;
982;SDS011;480;48.124;11.578;2022-10-16T04:11:21;2.07;;;1.90;;
982;SDS011;480;48.124;11.578;2022-10-16T04:13:48;4.23;;;1.50;;
982;SDS011;480;48.124;11.578;2022-10-16T04:16:15;1.40;;;1.30;;
982;SDS011;480;48.124;11.578;2022-10-16T04:18:42;1.57;;;1.47;;
982;SDS011;480;48.124;11.578;2022-10-16T04:21:09;1.47;;;1.20;;
982;SDS011;480;48.124;11.578;2022-10-16T04:23:36;1.30;;;1.20;;
982;SDS011;480;48.124;11.578;2022-10-16T04:26:04;1.77;;;1.67;;
982;SDS011;480;48.124;11.578;2022-10-16T04:28:32;1.37;;;1.27;;
982;SDS011;480;48.124;11.578;2022-10-16T04:30:58;1.50;;;1.40;;
982;SDS011;480;48.124;11.578;2022-10-16T04:33:25;1.93;;;1.13;;
982;SDS011;480;48.124;11.578;2022-10-16T04:35:56;2.07;;;1.50;;
982;SDS011;480;48.124;11.578;2022-10-16T04:38:23;2.60;;;2.40;;
982;SDS011;480;48.124;11.578;2022-10-16T04:40:50;1.87;;;1.77;;
982;SDS011;480;48.124;11.578;2022-10-16T04:43:19;1.80;;;1.20;;
982;SDS011;480;48.124;11.578;2022-10-16T04:45:46;3.37;;;1.60;;
982;SDS011;480;48.124;11.578;2022-10-16T04:48:15;2.70;;;1.63;;
982;SDS011;480;48.124;11.578;2022-10-16T04:50:42;2.93;;;1.23;;
982;SDS011;480;48.124;11.578;2022-10-16T04:53:11;2.10;;;1.80;;
982;SDS011;480;48.124;11.578;2022-10-16T04:55:38;1.33;;;1.23;;
982;SDS011;480;48.124;11.578;2022-10-16T04:58:07;1.57;;;1.47;;
982;SDS011;480;48.124;11.578;2022-10-16T05:00:35;1.90;;;1.80;;
982;SDS011;480;48.124;11.578;2022-10-16T05:03:03;1.47;;;1.37;;
982;SDS011;480;48.124;11.578;2022-10-16T05:05:33;1.60;;;1.50;;
982;SDS011;480;48.124;11.578;2022-10-16T05:08:00;1.80;;;1.70;;
982;SDS011;480;48.124;11.578;2022-10-16T05:10:31;1.90;;;1.33;;
982;SDS011;480;48.124;11.578;2022-10-16T05:12:58;2.10;;;1.73;;
982;SDS011;480;48.124;11.578;2022-10-16T05:15:25;1.60;;;1.47;;
982;SDS011;480;48.124;11.578;2022-10-16T05:17:54;1.40;;;1.30;;
982;SDS011;480;48.124;11.578;2022-10-16T05:20:21;1.47;;;1.37;;
982;SDS011;480;48.124;11.578;2022-10-16T05:22:49;1.87;;;1.77;;
982;SDS011;480;48.124;11.578;2022-10-16T05:25:16;1.30;;;1.20;;
982;SDS011;480;48.124;11.578;2022-10-16T05:27:46;2.47;;;2.30;;
982;SDS011;480;48.124;11.578;2022-10-16T05:30:13;2.40;;;1.90;;
982;SDS011;480;48.124;11.578;2022-10-16T05:32:40;2.03;;;1.53;;
982;SDS011;480;48.124;11.578;2022-10-16T05:35:09;2.00;;;1.90;;
982;SDS011;480;48.124;11.578;2022-10-16T05:37:36;3.73;;;1.77;;
982;SDS011;480;48.124;11.578;2022-10-16T05:40:04;1.60;;;1.50;;
982;SDS011;480;48.124;11.578;2022-10-16T05:42:33;1.90;;;1.80;;
982;SDS011;480;48.124;11.578;2022-10-16T05:45:00;1.57;;;1.33;;
982;SDS011;480;48.124;11.578;2022-10-16T05:47:27;2.60;;;1.80;;
982;SDS011;480;48.124;11.578;2022-10-16T05:49:54;2.23;;;2.03;;
982;SDS011;480;48.124;11.578;2022-10-16T05:52:22;2.00;;;1.77;;
982;SDS011;480;48.124;11.578;2022-10-16T05:54:49;2.13;;;1.93;;
982;SDS011;480;48.124;11.578;2022-10-16T05:57:16;2.47;;;1.87;;
982;SDS011;480;48.124;11.578;2022-10-16T05:59:43;3.00;;;1.70;;
982;SDS011;480;48.124;11.578;2022-10-16T06:02:11;1.50;;;1.40;;
982;SDS011;480;48.124;11.578;2022-10-16T06:04:39;2.37;;;1.90;;
982;SDS011;480;48.124;11.578;2022-10-16T06:07:06;2.20;;;2.00;;
982;SDS011;480;48.124;11.578;2022-10-16T06:09:34;2.83;;;1.83;;
982;SDS011;480;48.124;11.578;2022-10-16T06:12:01;3.07;;;2.10;;
982;SDS011;480;48.124;11.578;2022-10-16T06:14:31;1.83;;;1.63;;
982;SDS011;480;48.124;11.578;2022-10-16T06:16:59;1.40;;;1.30;;
982;SDS011;480;48.124;11.578;2022-10-16T06:19:31;2.00;;;1.53;;
982;SDS011;480;48.124;11.578;2022-10-16T06:21:58;2.10;;;1.90;;
982;SDS011;480;48.124;11.578;2022-10-16T06:24:25;3.03;;;1.90;;
982;SDS011;480;48.124;11.578;2022-10-16T06:26:53;3.90;;;2.57;;
982;SDS011;480;48.124;11.578;2022-10-16T06:29:20;2.07;;;1.87;;
982;SDS011;480;48.124;11.578;2022-10-16T06:31:47;2.20;;;1.90;;
982;SDS011;480;48.124;11.578;2022-10-16T06:34:14;2.20;;;1.80;;
982;SDS011;480;48.124;11.578;2022-10-16T06:36:41;2.10;;;1.50;;
982;SDS011;480;48.124;11.578;2022-10-16T06:39:09;1.47;;;1.37;;
982;SDS011;480;48.124;11.578;2022-10-16T06:41:36;3.10;;;1.93;;
982;SDS011;480;48.124;11.578;2022-10-16T06:44:06;2.07;;;1.87;;
982;SDS011;480;48.124;11.578;2022-10-16T06:46:33;4.40;;;2.20;;
982;SDS011;480;48.124;11.578;2022-10-16T06:49:00;2.67;;;2.47;;
982;SDS011;480;48.124;11.578;2022-10-16T06:51:28;2.87;;;2.60;;
982;SDS011;480;48.124;11.578;2022-10-16T06:53:57;3.20;;;2.50;;
982;SDS011;480;48.124;11.578;2022-10-16T06:56:24;3.27;;;2.47;;
982;SDS011;480;48.124;11.578;2022-10-16T06:58:54;2.93;;;2.20;;
982;SDS011;480;48.124;11.578;2022-10-16T07:01:23;2.57;;;2.37;;
982;SDS011;480;48.124;11.578;2022-10-16T07:03:51;2.83;;;2.63;;
982;SDS011;480;48.124;11.578;2022-10-16T07:06:19;2.83;;;1.73;;
982;SDS011;480;48.124;11.578;2022-10-16T07:08:47;3.00;;;2.43;;
982;SDS011;480;48.124;11.578;2022-10-16T07:11:16;4.10;;;2.10;;
982;SDS011;480;48.124;11.578;2022-10-16T07:13:45;2.20;;;2.00;;
982;SDS011;480;48.124;11.578;2022-10-16T07:16:13;1.87;;;1.77;;
982;SDS011;480;48.124;11.578;2022-10-16T07:18:43;3.10;;;2.30;;
982;SDS011;480;48.124;11.578;2022-10-16T07:21:12;3.27;;;2.40;;
982;SDS011;480;48.124;11.578;2022-10-16T07:23:40;3.43;;;2.40;;
982;SDS011;480;48.124;11.578;2022-10-16T07:26:08;2.70;;;2.37;;
982;SDS011;480;48.124;11.578;2022-10-16T07:28:38;2.43;;;1.80;;
982;SDS011;480;48.124;11.578;2022-10-16T07:31:09;2.90;;;2.50;;
982;SDS011;480;48.124;11.578;2022-10-16T07:36:24;3.33;;;1.80;;
982;SDS011;480;48.124;11.578;2022-10-16T07:39:02;2.10;;;2.00;;
982;SDS011;480;48.124;11.578;2022-10-16T07:41:53;3.20;;;2.90;;
982;SDS011;480;48.124;11.578;2022-10-16T07:44:26;2.63;;;2.43;;
982;SDS011;480;48.124;11.578;2022-10-16T07:46:57;2.47;;;2.27;;
982;SDS011;480;48.124;11.578;2022-10-16T07:49:26;2.17;;;1.97;;
982;SDS011;480;48.124;11.578;2022-10-16T07:51:55;2.40;;;2.13;;
982;SDS011;480;48.124;11.578;2022-10-16T07:54:25;2.03;;;1.83;;
982;SDS011;480;48.124;11.578;2022-10-16T07:57:07;2.50;;;1.90;;
982;SDS011;480;48.124;11.578;2022-10-16T07:59:47;3.30;;;2.53;;
982;SDS011;480;48.124;11.578;2022-10-16T08:02:39;2.20;;;2.00;;
982;SDS011;480;48.124;11.578;2022-10-16T08:05:11;12.50;;;2.33;;
982;SDS011;480;48.124;11.578;2022-10-16T08:07:47;2.00;;;1.90;;
982;SDS011;480;48.124;11.578;2022-10-16T08:10:20;2.87;;;1.70;;
982;SDS011;480;48.124;11.578;2022-10-16T08:13:04;2.40;;;2.20;;
982;SDS011;480;48.124;11.578;2022-10-16T08:15:43;2.03;;;1.70;;
982;SDS011;480;48.124;11.578;2022-10-16T08:18:30;1.83;;;1.63;;
982;SDS011;480;48.124;11.578;2022-10-16T08:24:26;1.80;;;1.50;;
982;SDS011;480;48.124;11.578;2022-10-16T08:26:55;2.50;;;2.30;;
982;SDS011;480;48.124;11.578;2022-10-16T08:29:26;1.70;;;1.60;;
982;SDS011;480;48.124;11.578;2022-10-16T08:31:53;1.90;;;1.53;;
982;SDS011;480;48.124;11.578;2022-10-16T08:34:20;3.33;;;1.80;;
982;SDS011;480;48.124;11.578;2022-10-16T08:36:47;1.63;;;1.17;;
982;SDS011;480;48.124;11.578;2022-10-16T08:39:15;1.70;;;1.60;;
982;SDS011;480;48.124;11.578;2022-10-16T08:41:59;3.10;;;1.70;;
982;SDS011;480;48.124;11.578;2022-10-16T08:47:48;1.87;;;1.70;;
982;SDS011;480;48.124;11.578;2022-10-16T08:50:32;1.60;;;1.50;;
982;SDS011;480;48.124;11.578;2022-10-16T08:53:03;2.10;;;1.73;;
982;SDS011;480;48.124;11.578;2022-10-16T08:55:33;3.53;;;2.70;;
982;SDS011;480;48.124;11.578;2022-10-16T08:58:10;5.13;;;3.83;;
982;SDS011;480;48.124;11.578;2022-10-16T09:00:39;3.43;;;2.97;;
982;SDS011;480;48.124;11.578;2022-10-16T09:03:11;2.70;;;2.47;;
982;SDS011;480;48.124;11.578;2022-10-16T09:05:54;2.50;;;1.63;;
982;SDS011;480;48.124;11.578;2022-10-16T09:08:35;1.90;;;1.60;;
982;SDS011;480;48.124;11.578;2022-10-16T09:11:11;2.10;;;1.80;;
982;SDS011;480;48.124;11.578;2022-10-16T09:13:50;1.73;;;1.63;;
982;SDS011;480;48.124;11.578;2022-10-16T09:16:27;1.87;;;1.30;;
982;SDS011;480;48.124;11.578;2022-10-16T09:18:58;1.50;;;1.40;;
982;SDS011;480;48.124;11.578;2022-10-16T09:21:31;1.80;;;1.60;;
982;SDS011;480;48.124;11.578;2022-10-16T09:24:08;2.10;;;1.90;;
982;SDS011;480;48.124;11.578;2022-10-16T09:26:38;1.50;;;1.40;;
982;SDS011;480;48.124;11.578;2022-10-16T09:29:13;2.50;;;2.00;;
982;SDS011;480;48.124;11.578;2022-10-16T09:31:41;2.30;;;2.10;;
982;SDS011;480;48.124;11.578;2022-10-16T09:34:11;2.53;;;2.23;;
982;SDS011;480;48.124;11.578;2022-10-16T09:36:44;1.73;;;1.63;;
982;SDS011;480;48.124;11.578;2022-10-16T09:39:13;1.83;;;1.73;;
982;SDS011;480;48.124;11.578;2022-10-16T09:41:41;2.60;;;1.70;;
982;SDS011;480;48.124;11.578;2022-10-16T09:44:21;3.00;;;1.70;;
982;SDS011;480;48.124;11.578;2022-10-16T09:47:00;3.80;;;2.03;;
982;SDS011;480;48.124;11.578;2022-10-16T09:49:28;1.70;;;1.60;;
982;SDS011;480;48.124;11.578;2022-10-16T09:52:02;2.80;;;1.97;;
982;SDS011;480;48.124;11.578;2022-10-16T09:54:30;1.40;;;1.30;;
982;SDS011;480;48.124;11.578;2022-10-16T09:57:04;2.70;;;2.43;;
982;SDS011;480;48.124;11.578;2022-10-16T09:59:33;3.30;;;2.10;;
982;SDS011;480;48.124;11.578;2022-10-16T10:02:04;1.73;;;1.40;;
982;SDS011;480;48.124;11.578;2022-10-16T10:04:40;3.10;;;2.03;;
982;SDS011;480;48.124;11.578;2022-10-16T10:07:17;1.70;;;1.60;;
982;SDS011;480;48.124;11.578;2022-10-16T10:09:46;2.80;;;1.73;;
982;SDS011;480;48.124;11.578;2022-10-16T10:12:17;2.40;;;2.10;;
982;SDS011;480;48.124;11.578;2022-10-16T10:14:48;2.50;;;1.87;;
982;SDS011;480;48.124;11.578;2022-10-16T10:17:17;1.70;;;1.40;;
982;SDS011;480;48.124;11.578;2022-10-16T10:19:47;1.90;;;1.70;;
982;SDS011;480;48.124;11.578;2022-10-16T10:22:16;2.13;;;2.00;;
982;SDS011;480;48.124;11.578;2022-10-16T10:24:54;2.63;;;1.97;;
982;SDS011;480;48.124;11.578;2022-10-16T10:27:39;2.10;;;1.50;;
982;SDS011;480;48.124;11.578;2022-10-16T10:30:18;2.10;;;1.90;;
982;SDS011;480;48.124;11.578;2022-10-16T10:32:51;2.10;;;1.60;;
982;SDS011;480;48.124;11.578;2022-10-16T10:35:30;2.50;;;2.23;;
982;SDS011;480;48.124;11.578;2022-10-16T10:38:10;2.10;;;1.50;;
982;SDS011;480;48.124;11.578;2022-10-16T10:40:49;2.60;;;1.70;;
982;SDS011;480;48.124;11.578;2022-10-16T10:43:25;2.60;;;1.70;;
982;SDS011;480;48.124;11.578;2022-10-16T10:46:05;2.00;;;1.60;;
982;SDS011;480;48.124;11.578;2022-10-16T10:48:47;2.17;;;1.70;;
982;SDS011;480;48.124;11.578;2022-10-16T10:51:27;3.87;;;1.73;;
982;SDS011;480;48.124;11.578;2022-10-16T10:54:03;5.40;;;2.60;;
982;SDS011;480;48.124;11.578;2022-10-16T10:56:42;2.00;;;1.80;;
982;SDS011;480;48.124;11.578;2022-10-16T10:59:26;2.07;;;1.43;;
982;SDS011;480;48.124;11.578;2022-10-16T11:02:07;2.27;;;1.43;;
982;SDS011;480;48.124;11.578;2022-10-16T11:04:45;2.30;;;1.70;;
982;SDS011;480;48.124;11.578;2022-10-16T11:07:25;1.83;;;1.47;;
982;SDS011;480;48.124;11.578;2022-10-16T11:09:57;1.93;;;1.50;;
982;SDS011;480;48.124;11.578;2022-10-16T11:12:29;3.10;;;2.00;;
982;SDS011;480;48.124;11.578;2022-10-16T11:15:03;2.77;;;1.70;;
982;SDS011;480;48.124;11.578;2022-10-16T11:17:41;2.07;;;1.80;;
982;SDS011;480;48.124;11.578;2022-10-16T11:20:13;1.70;;;1.30;;
982;SDS011;480;48.124;11.578;2022-10-16T11:22:44;2.30;;;1.47;;
982;SDS011;480;48.124;11.578;2022-10-16T11:25:18;2.50;;;1.50;;
982;SDS011;480;48.124;11.578;2022-10-16T11:27:49;3.10;;;2.30;;
982;SDS011;480;48.124;11.578;2022-10-16T11:30:21;2.60;;;1.80;;
982;SDS011;480;48.124;11.578;2022-10-16T11:32:54;6.00;;;1.60;;
982;SDS011;480;48.124;11.578;2022-10-16T11:35:33;3.20;;;1.47;;
982;SDS011;480;48.124;11.578;2022-10-16T11:38:08;9.83;;;9.20;;
982;SDS011;480;48.124;11.578;2022-10-16T11:40:41;1342.90;;;643.57;;
982;SDS011;480;48.124;11.578;2022-10-16T11:43:14;1999.90;;;999.90;;
982;SDS011;480;48.124;11.578;2022-10-16T11:45:46;1999.90;;;991.33;;
982;SDS011;480;48.124;11.578;2022-10-16T11:48:20;1951.63;;;941.70;;
982;SDS011;480;48.124;11.578;2022-10-16T11:50:52;1999.90;;;999.90;;
982;SDS011;480;48.124;11.578;2022-10-16T11:53:24;403.87;;;237.93;;
982;SDS011;480;48.124;11.578;2022-10-16T11:56:01;238.87;;;221.07;;
982;SDS011;480;48.124;11.578;2022-10-16T11:58:30;1999.90;;;999.90;;
982;SDS011;480;48.124;11.578;2022-10-16T12:01:02;675.37;;;271.63;;
982;SDS011;480;48.124;11.578;2022-10-16T12:03:44;539.83;;;272.77;;
982;SDS011;480;48.124;11.578;2022-10-16T12:06:19;782.80;;;432.53;;
982;SDS011;480;48.124;11.578;2022-10-16T12:08:52;1923.17;;;376.90;;
982;SDS011;480;48.124;11.578;2022-10-16T12:11:30;94.60;;;84.43;;
982;SDS011;480;48.124;11.578;2022-10-16T12:14:04;48.07;;;45.97;;
982;SDS011;480;48.124;11.578;2022-10-16T12:16:37;1999.90;;;999.90;;
982;SDS011;480;48.124;11.578;2022-10-16T12:19:13;256.77;;;132.97;;
982;SDS011;480;48.124;11.578;2022-10-16T12:21:41;194.23;;;69.20;;
982;SDS011;480;48.124;11.578;2022-10-16T12:24:19;210.10;;;101.00;;
982;SDS011;480;48.124;11.578;2022-10-16T12:26:52;145.37;;;139.80;;
982;SDS011;480;48.124;11.578;2022-10-16T12:29:23;1553.10;;;890.17;;
982;SDS011;480;48.124;11.578;2022-10-16T12:31:55;1999.90;;;999.90;;
982;SDS011;480;48.124;11.578;2022-10-16T12:34:25;1916.73;;;554.93;;
982;SDS011;480;48.124;11.578;2022-10-16T12:36:55;1762.27;;;724.03;;
982;SDS011;480;48.124;11.578;2022-10-16T12:39:34;1999.90;;;999.90;;
982;SDS011;480;48.124;11.578;2022-10-16T12:42:19;1999.90;;;999.90;;
982;SDS011;480;48.124;11.578;2022-10-16T12:44:58;1000.50;;;643.00;;
982;SDS011;480;48.124;11.578;2022-10-16T12:47:38;1999.90;;;918.40;;
982;SDS011;480;48.124;11.578;2022-10-16T12:50:26;1999.90;;;988.50;;
982;SDS011;480;48.124;11.578;2022-10-16T12:52:56;1999.90;;;999.90;;
982;SDS011;480;48.124;11.578;2022-10-16T12:55:23;162.87;;;128.20;;
982;SDS011;480;48.124;11.578;2022-10-16T12:58:00;713.73;;;90.67;;
982;SDS011;480;48.124;11.578;2022-10-16T13:00:36;1999.90;;;999.90;;
982;SDS011;480;48.124;11.578;2022-10-16T13:06:19;1999.90;;;999.90;;
982;SDS011;480;48.124;11.578;2022-10-16T13:09:00;1999.90;;;999.90;;
982;SDS011;480;48.124;11.578;2022-10-16T13:11:39;1690.30;;;798.40;;
982;SDS011;480;48.124;11.578;2022-10-16T13:14:25;1708.13;;;895.17;;
982;SDS011;480;48.124;11.578;2022-10-16T13:17:03;1999.90;;;999.90;;
982;SDS011;480;48.124;11.578;2022-10-16T13:19:41;1143.87;;;369.43;;
982;SDS011;480;48.124;11.578;2022-10-16T13:22:22;804.77;;;666.80;;
982;SDS011;480;48.124;11.578;2022-10-16T13:24:57;237.83;;;91.23;;
982;SDS011;480;48.124;11.578;2022-10-16T13:27:35;221.67;;;70.03;;
982;SDS011;480;48.124;11.578;2022-10-16T13:30:11;192.60;;;56.57;;
982;SDS011;480;48.124;11.578;2022-10-16T13:32:47;235.63;;;89.13;;
982;SDS011;480;48.124;11.578;2022-10-16T13:35:24;234.00;;;57.97;;
982;SDS011;480;48.124;11.578;2022-10-16T13:38:04;38.80;;;37.10;;
982;SDS011;480;48.124;11.578;2022-10-16T13:40:47;1999.90;;;978.87;;
982;SDS011;480;48.124;11.578;2022-10-16T13:43:16;133.10;;;102.43;;
982;SDS011;480;48.124;11.578;2022-10-16T13:45:52;1999.90;;;999.90;;
982;SDS011;480;48.124;11.578;2022-10-16T13:48:28;1999.90;;;999.90;;
982;SDS011;480;48.124;11.578;2022-10-16T13:51:02;187.30;;;77.53;;
982;SDS011;480;48.124;11.578;2022-10-16T13:53:39;65.80;;;62.00;;
982;SDS011;480;48.124;11.578;2022-10-16T13:56:10;1999.90;;;999.90;;
982;SDS011;480;48.124;11.578;2022-10-16T13:58:39;199.40;;;62.73;;
982;SDS011;480;48.124;11.578;2022-10-16T14:01:15;280.23;;;96.37;;
982;SDS011;480;48.124;11.578;2022-10-16T14:03:44;623.33;;;579.67;;
982;SDS011;480;48.124;11.578;2022-10-16T14:06:13;103.70;;;98.37;;
982;SDS011;480;48.124;11.578;2022-10-16T14:08:48;1999.90;;;484.10;;
982;SDS011;480;48.124;11.578;2022-10-16T14:11:20;1999.90;;;999.90;;
982;SDS011;480;48.124;11.578;2022-10-16T14:13:49;1999.90;;;999.90;;
982;SDS011;480;48.124;11.578;2022-10-16T14:16:18;1379.07;;;967.33;;
982;SDS011;480;48.124;11.578;2022-10-16T14:18:49;1999.90;;;999.90;;
982;SDS011;480;48.124;11.578;2022-10-16T14:21:22;64.07;;;60.23;;
982;SDS011;480;48.124;11.578;2022-10-16T14:23:51;1999.90;;;893.00;;
982;SDS011;480;48.124;11.578;2022-10-16T14:26:19;1959.50;;;753.07;;
982;SDS011;480;48.124;11.578;2022-10-16T14:28:48;1999.90;;;954.93;;
982;SDS011;480;48.124;11.578;2022-10-16T14:31:30;1999.90;;;801.83;;
982;SDS011;480;48.124;11.578;2022-10-16T14:34:00;1999.90;;;999.90;;
982;SDS011;480;48.124;11.578;2022-10-16T14:36:28;1993.27;;;910.77;;
982;SDS011;480;48.124;11.578;2022-10-16T14:38:59;553.37;;;424.87;;
982;SDS011;480;48.124;11.578;2022-10-16T14:41:28;1999.90;;;999.90;;
982;SDS011;480;48.124;11.578;2022-10-16T14:43:57;1999.90;;;999.90;;
982;SDS011;480;48.124;11.578;2022-10-16T14:46:28;1999.90;;;999.90;;
982;SDS011;480;48.124;11.578;2022-10-16T14:49:00;1999.90;;;999.90;;
982;SDS011;480;48.124;11.578;2022-10-16T14:51:31;1999.90;;;999.90;;
982;SDS011;480;48.124;11.578;2022-10-16T14:53:59;1999.90;;;999.90;;
982;SDS011;480;48.124;11.578;2022-10-16T14:56:28;1999.90;;;999.90;;
982;SDS011;480;48.124;11.578;2022-10-16T14:58:57;1999.90;;;999.90;;
982;SDS011;480;48.124;11.578;2022-10-16T15:01:24;1715.63;;;465.57;;
982;SDS011;480;48.124;11.578;2022-10-16T15:03:51;1999.90;;;999.90;;
982;SDS011;480;48.124;11.578;2022-10-16T15:06:19;1999.90;;;999.90;;
982;SDS011;480;48.124;11.578;2022-10-16T15:08:47;1999.90;;;999.90;;
982;SDS011;480;48.124;11.578;2022-10-16T15:11:16;1593.53;;;843.43;;
982;SDS011;480;48.124;11.578;2022-10-16T15:13:45;33.33;;;31.57;;
982;SDS011;480;48.124;11.578;2022-10-16T15:16:13;10.77;;;9.87;;
982;SDS011;480;48.124;11.578;2022-10-16T15:18:41;7.13;;;6.50;;
982;SDS011;480;48.124;11.578;2022-10-16T15:21:08;6.03;;;3.90;;
982;SDS011;480;48.124;11.578;2022-10-16T15:23:49;3.93;;;2.53;;
982;SDS011;480;48.124;11.578;2022-10-16T15:26:18;3.77;;;2.00;;
982;SDS011;480;48.124;11.578;2022-10-16T15:28:45;3.60;;;2.00;;
982;SDS011;480;48.124;11.578;2022-10-16T15:31:12;3.87;;;2.60;;
982;SDS011;480;48.124;11.578;2022-10-16T15:33:39;3.10;;;2.33;;
982;SDS011;480;48.124;11.578;2022-10-16T15:36:06;2.90;;;2.10;;
982;SDS011;480;48.124;11.578;2022-10-16T15:38:34;4.20;;;2.43;;
982;SDS011;480;48.124;11.578;2022-10-16T15:41:01;5.93;;;3.47;;
982;SDS011;480;48.124;11.578;2022-10-16T15:43:30;2.10;;;1.90;;
982;SDS011;480;48.124;11.578;2022-10-16T15:46:00;2.60;;;2.00;;
982;SDS011;480;48.124;11.578;2022-10-16T15:48:29;2.43;;;1.87;;
982;SDS011;480;48.124;11.578;2022-10-16T15:50:56;3.50;;;2.50;;
982;SDS011;480;48.124;11.578;2022-10-16T15:53:23;3.73;;;2.80;;